createdAt,value
2023-04-10T00:01:04.172Z,3.92
2023-04-10T00:03:35.954Z,4.25
2023-04-10T00:06:07.865Z,3.80
2023-04-10T00:08:41.268Z,3.78
2023-04-10T00:11:12.055Z,4.18
2023-04-10T00:13:42.988Z,4.18
2023-04-10T00:16:13.916Z,3.47
2023-04-10T00:18:44.881Z,3.67
2023-04-10T00:21:15.966Z,3.72
2023-04-10T00:23:49.428Z,4.07
2023-04-10T00:26:21.279Z,3.80
2023-04-10T00:28:52.246Z,3.95
2023-04-10T00:31:23.127Z,3.63
2023-04-10T00:33:54.193Z,3.92
2023-04-10T00:36:25.154Z,4.10
2023-04-10T00:38:59.790Z,3.97
2023-04-10T00:41:30.955Z,3.92
2023-04-10T00:44:02.817Z,4.60
2023-04-10T00:46:36.232Z,6.32
2023-04-10T00:49:07.552Z,6.22
2023-04-10T00:51:39.664Z,4.80
2023-04-10T00:54:13.932Z,4.78
2023-04-10T00:56:44.890Z,4.78
2023-04-10T00:59:15.871Z,4.00
2023-04-10T01:01:46.732Z,4.22
2023-04-10T01:04:19.233Z,3.53
2023-04-10T01:07:01.059Z,3.20
2023-04-10T01:09:47.520Z,3.67
2023-04-10T01:12:28.997Z,3.60
2023-04-10T01:15:07.404Z,3.30
2023-04-10T01:17:46.902Z,3.38
2023-04-10T01:20:26.068Z,3.58
2023-04-10T01:23:24.826Z,3.90
2023-04-10T01:26:03.235Z,3.83
2023-04-10T01:29:00.763Z,3.95
2023-04-10T01:31:39.681Z,3.53
2023-04-10T01:34:14.700Z,3.80
2023-04-10T01:36:52.068Z,3.25
2023-04-10T01:39:25.072Z,3.38
2023-04-10T01:41:58.205Z,3.40
2023-04-10T01:44:47.292Z,3.50
2023-04-10T01:47:20.184Z,3.70
2023-04-10T01:49:52.795Z,3.47
2023-04-10T01:52:24.304Z,3.50
2023-04-10T01:55:05.640Z,4.10
2023-04-10T01:57:43.174Z,3.70
2023-04-10T02:00:17.692Z,3.78
2023-04-10T02:02:48.840Z,3.83
2023-04-10T02:05:20.352Z,4.22
2023-04-10T02:07:58.845Z,4.72
2023-04-10T02:10:34.823Z,4.57
2023-04-10T02:13:10.238Z,4.13
2023-04-10T02:15:47.563Z,4.50
2023-04-10T02:18:20.189Z,4.65
2023-04-10T02:20:51.335Z,5.15
2023-04-10T02:23:23.842Z,4.80
2023-04-10T02:25:56.588Z,4.22
2023-04-10T02:28:27.462Z,4.35
2023-04-10T02:31:00.991Z,4.50
2023-04-10T02:33:32.066Z,4.82
2023-04-10T02:36:04.382Z,4.70
2023-04-10T02:38:35.285Z,4.60
2023-04-10T02:41:06.123Z,4.70
2023-04-10T02:43:36.968Z,4.43
2023-04-10T02:46:12.064Z,4.03
2023-04-10T02:48:44.258Z,5.40
2023-04-10T02:51:16.298Z,4.90
2023-04-10T02:53:47.247Z,4.25
2023-04-10T02:56:28.744Z,4.32
2023-04-10T02:58:59.744Z,4.43
2023-04-10T03:01:33.456Z,3.97
2023-04-10T03:04:04.884Z,3.90
2023-04-10T03:06:40.844Z,3.83
2023-04-10T03:09:11.641Z,4.32
2023-04-10T03:11:42.644Z,3.95
2023-04-10T03:14:13.624Z,3.90
2023-04-10T03:16:48.107Z,4.63
2023-04-10T03:19:19.133Z,4.38
2023-04-10T03:21:50.265Z,4.10
2023-04-10T03:24:22.878Z,4.43
2023-04-10T03:26:53.740Z,4.13
2023-04-10T03:29:24.602Z,4.38
2023-04-10T03:31:58.259Z,4.07
2023-04-10T03:34:30.012Z,4.32
2023-04-10T03:37:00.790Z,4.07
2023-04-10T03:39:32.245Z,4.25
2023-04-10T03:42:03.043Z,4.40
2023-04-10T03:44:34.600Z,4.47
2023-04-10T03:47:10.355Z,4.70
2023-04-10T03:49:41.271Z,4.43
2023-04-10T03:52:12.180Z,4.20
2023-04-10T03:54:43.512Z,4.30
2023-04-10T03:57:26.326Z,4.47
2023-04-10T04:00:03.343Z,4.47
2023-04-10T04:05:44.215Z,4.53
2023-04-10T04:08:34.358Z,4.75
2023-04-10T04:11:14.377Z,4.28
2023-04-10T04:13:58.152Z,4.05
2023-04-10T04:16:47.811Z,4.47
2023-04-10T04:19:50.300Z,4.38
2023-04-10T04:22:21.225Z,4.80
2023-04-10T04:25:30.376Z,4.70
2023-04-10T04:28:19.905Z,4.72
2023-04-10T04:31:10.540Z,4.13
2023-04-10T04:34:06.243Z,5.47
2023-04-10T04:36:51.814Z,4.13
2023-04-10T04:39:51.629Z,4.68
2023-04-10T04:45:31.346Z,5.13
2023-04-10T04:48:22.298Z,5.53
2023-04-10T04:51:07.068Z,4.57
2023-04-10T04:53:58.091Z,5.55
2023-04-10T04:56:40.021Z,5.18
2023-04-10T04:59:29.005Z,4.50
2023-04-10T05:02:07.685Z,4.63
2023-04-10T05:04:48.257Z,5.28
2023-04-10T05:07:41.390Z,4.20
2023-04-10T05:10:30.274Z,4.43
2023-04-10T05:13:15.829Z,4.53
2023-04-10T05:15:56.903Z,4.90
2023-04-10T05:18:59.292Z,5.88
2023-04-10T05:21:48.457Z,4.88
2023-04-10T05:24:47.688Z,4.90
2023-04-10T05:27:29.763Z,5.28
2023-04-10T05:30:02.839Z,4.50
2023-04-10T05:32:46.265Z,4.72
2023-04-10T05:35:37.819Z,5.05
2023-04-10T05:38:22.837Z,5.03
2023-04-10T05:41:03.292Z,4.68
2023-04-10T05:44:05.595Z,5.03
2023-04-10T05:46:55.850Z,5.40
2023-04-10T05:49:44.179Z,5.22
2023-04-10T05:52:34.952Z,4.95
2023-04-10T05:55:28.365Z,5.35
2023-04-10T05:58:17.144Z,4.93
2023-04-10T06:01:02.533Z,5.68
2023-04-10T06:03:53.265Z,5.55
2023-04-10T06:06:26.125Z,5.90
2023-04-10T06:08:59.100Z,6.20
2023-04-10T06:11:29.342Z,6.60
2023-04-10T06:14:01.273Z,6.13
2023-04-10T06:16:41.218Z,6.88
2023-04-10T06:19:12.141Z,6.30
2023-04-10T06:21:42.450Z,6.10
2023-04-10T06:24:15.960Z,5.70
2023-04-10T06:26:50.620Z,6.07
2023-04-10T06:29:21.248Z,5.93
2023-04-10T06:31:52.602Z,5.85
2023-04-10T06:34:23.437Z,6.15
2023-04-10T06:37:01.881Z,6.95
2023-04-10T06:39:34.910Z,6.20
2023-04-10T06:42:05.999Z,5.68
2023-04-10T06:44:59.682Z,5.93
2023-04-10T06:47:30.082Z,6.30
2023-04-10T06:50:00.484Z,5.95
2023-04-10T06:52:30.850Z,6.65
2023-04-10T06:55:03.699Z,6.35
2023-04-10T06:57:33.994Z,6.25
2023-04-10T07:00:04.403Z,6.75
2023-04-10T07:02:34.963Z,6.43
2023-04-10T07:05:05.347Z,6.50
2023-04-10T07:07:35.723Z,6.55
2023-04-10T07:10:10.141Z,7.00
2023-04-10T07:12:40.497Z,5.78
2023-04-10T07:15:12.759Z,6.88
2023-04-10T07:17:43.136Z,5.78
2023-04-10T07:20:14.722Z,6.25
2023-04-10T07:22:45.720Z,6.72
2023-04-10T07:25:18.899Z,5.97
2023-04-10T07:27:49.219Z,6.97
2023-04-10T07:30:19.721Z,6.50
2023-04-10T07:32:50.359Z,6.70
2023-04-10T07:35:21.149Z,6.40
2023-04-10T07:37:52.804Z,6.47
2023-04-10T07:40:25.870Z,7.05
2023-04-10T07:42:56.298Z,6.95
2023-04-10T07:45:27.964Z,7.38
2023-04-10T07:47:59.704Z,7.03
2023-04-10T07:50:30.736Z,8.10
2023-04-10T07:53:03.807Z,6.93
2023-04-10T07:55:41.294Z,6.43
2023-04-10T07:58:11.959Z,6.00
2023-04-10T08:00:42.278Z,6.35
2023-04-10T08:03:12.839Z,7.30
2023-04-10T08:05:43.414Z,6.18
2023-04-10T08:08:13.949Z,6.78
2023-04-10T08:10:46.782Z,6.95
2023-04-10T08:13:17.085Z,6.53
2023-04-10T08:15:47.439Z,6.65
2023-04-10T08:18:17.708Z,6.40
2023-04-10T08:20:48.029Z,6.60
2023-04-10T08:26:11.436Z,6.47
2023-04-10T08:28:41.765Z,6.45
2023-04-10T08:31:12.235Z,6.35
2023-04-10T08:33:42.525Z,6.10
2023-04-10T08:36:13.047Z,6.07
2023-04-10T08:38:43.447Z,6.15
2023-04-10T08:41:17.699Z,5.78
2023-04-10T08:43:49.898Z,7.00
2023-04-10T08:46:20.447Z,6.78
2023-04-10T08:48:56.352Z,5.65
2023-04-10T08:51:31.903Z,6.65
2023-04-10T08:54:09.425Z,6.40
2023-04-10T08:56:45.407Z,6.35
2023-04-10T08:59:15.933Z,6.00
2023-04-10T09:01:47.037Z,6.80
2023-04-10T09:04:18.305Z,5.97
2023-04-10T09:06:48.863Z,6.03
2023-04-10T09:09:19.238Z,6.00
2023-04-10T09:12:07.003Z,6.45
2023-04-10T09:14:39.322Z,5.82
2023-04-10T09:17:24.114Z,6.68
2023-04-10T09:19:56.535Z,5.35
2023-04-10T09:22:34.324Z,5.30
2023-04-10T09:25:06.557Z,5.35
2023-04-10T09:27:40.337Z,6.07
2023-04-10T09:30:11.907Z,5.70
2023-04-10T09:32:47.377Z,5.68
2023-04-10T09:35:18.734Z,5.47
2023-04-10T09:37:49.654Z,6.10
2023-04-10T09:40:24.801Z,5.25
2023-04-10T09:43:00.022Z,6.05
2023-04-10T09:45:49.261Z,5.45
2023-04-10T09:48:19.686Z,5.13
2023-04-10T09:50:50.378Z,5.13
2023-04-10T09:53:22.067Z,5.30
2023-04-10T09:55:53.358Z,5.20
2023-04-10T09:58:28.124Z,5.22
2023-04-10T10:00:58.579Z,4.35
2023-04-10T10:03:29.490Z,4.35
2023-04-10T10:05:59.953Z,5.32
2023-04-10T10:08:30.930Z,5.18
2023-04-10T10:11:03.429Z,4.63
2023-04-10T10:13:44.221Z,4.78
2023-04-10T10:16:21.757Z,5.00
2023-04-10T10:19:01.223Z,3.95
2023-04-10T10:21:34.230Z,4.22
2023-04-10T10:24:05.936Z,4.70
2023-04-10T10:26:38.033Z,3.65
2023-04-10T10:29:14.213Z,3.90
2023-04-10T10:31:45.582Z,3.30
2023-04-10T10:34:18.138Z,3.67
2023-04-10T10:36:48.546Z,3.22
2023-04-10T10:39:33.732Z,3.50
2023-04-10T10:42:11.951Z,3.13
2023-04-10T10:44:51.363Z,3.58
2023-04-10T10:47:25.773Z,4.07
2023-04-10T10:50:00.901Z,4.10
2023-04-10T10:52:44.903Z,3.13
2023-04-10T10:55:39.812Z,2.42
2023-04-10T10:58:11.604Z,2.63
2023-04-10T11:01:21.966Z,2.55
2023-04-10T11:03:54.989Z,2.28
2023-04-10T11:06:46.002Z,2.63
2023-04-10T11:09:45.999Z,2.10
2023-04-10T11:12:16.421Z,1.67
2023-04-10T11:14:48.026Z,1.80
2023-04-10T11:17:59.172Z,1.73
2023-04-10T11:20:32.188Z,1.90
2023-04-10T11:23:13.590Z,2.75
2023-04-10T11:25:54.800Z,1.75
2023-04-10T11:28:40.641Z,1.50
2023-04-10T11:31:22.338Z,2.00
2023-04-10T11:34:04.415Z,1.48
2023-04-10T11:36:40.914Z,1.77
2023-04-10T11:39:18.058Z,1.30
2023-04-10T11:41:49.628Z,1.67
2023-04-10T11:44:21.321Z,2.03
2023-04-10T11:46:52.188Z,1.52
2023-04-10T11:49:24.572Z,1.83
2023-04-10T11:51:57.782Z,1.60
2023-04-10T11:54:29.731Z,1.60
2023-04-10T11:57:02.779Z,1.70
2023-04-10T11:59:34.169Z,1.63
2023-04-10T12:02:10.312Z,1.55
2023-04-10T12:04:42.060Z,1.45
2023-04-10T12:07:15.346Z,1.30
2023-04-10T12:09:45.803Z,1.50
2023-04-10T12:12:16.196Z,1.00
2023-04-10T12:14:46.923Z,1.05
2023-04-10T12:17:19.748Z,0.90
2023-04-10T12:19:50.195Z,0.80
2023-04-10T12:22:23.904Z,0.93
2023-04-10T12:24:56.473Z,1.30
2023-04-10T12:27:28.982Z,0.90
2023-04-10T12:30:01.273Z,0.47
2023-04-10T12:32:31.765Z,0.60
2023-04-10T12:35:03.755Z,0.90
2023-04-10T12:37:55.392Z,0.63
2023-04-10T12:40:25.945Z,0.82
2023-04-10T12:42:56.564Z,0.50
2023-04-10T12:45:44.832Z,0.70
2023-04-10T12:48:15.102Z,0.50
2023-04-10T12:50:52.422Z,0.93
2023-04-10T12:53:26.372Z,0.60
2023-04-10T12:56:01.916Z,0.93
2023-04-10T12:58:32.760Z,0.43
2023-04-10T13:01:07.746Z,0.50
2023-04-10T13:03:38.998Z,0.70
2023-04-10T13:06:10.647Z,0.50
2023-04-10T13:08:43.584Z,0.80
2023-04-10T13:11:14.041Z,0.60
2023-04-10T13:13:44.375Z,0.47
2023-04-10T13:16:14.716Z,0.57
2023-04-10T13:18:45.259Z,0.75
2023-04-10T13:21:18.968Z,0.60
2023-04-10T13:23:52.029Z,0.70
2023-04-10T13:26:22.331Z,0.80
2023-04-10T13:28:53.016Z,0.68
2023-04-10T13:31:23.707Z,1.15
2023-04-10T13:33:54.080Z,0.65
2023-04-10T13:36:24.564Z,0.80
2023-04-10T13:38:57.701Z,0.70
2023-04-10T13:41:28.325Z,0.80
2023-04-10T13:43:58.572Z,0.50
2023-04-10T13:46:29.114Z,0.60
2023-04-10T13:49:00.333Z,0.85
2023-04-10T13:51:31.199Z,0.77
2023-04-10T13:54:05.511Z,0.77
2023-04-10T13:56:35.943Z,0.70
2023-04-10T13:59:06.471Z,0.90
2023-04-10T14:01:36.837Z,1.50
2023-04-10T14:04:07.301Z,1.40
2023-04-10T14:06:38.178Z,1.50
2023-04-10T14:09:11.053Z,1.30
2023-04-10T14:11:41.323Z,1.70
2023-04-10T14:14:11.605Z,1.15
2023-04-10T14:16:41.937Z,1.50
2023-04-10T14:19:12.297Z,1.40
2023-04-10T14:21:44.543Z,1.25
2023-04-10T14:24:17.456Z,1.40
2023-04-10T14:26:47.753Z,1.38
2023-04-10T14:29:20.210Z,1.48
2023-04-10T14:31:58.160Z,1.85
2023-04-10T14:34:28.728Z,2.17
2023-04-10T14:36:59.047Z,1.52
2023-04-10T14:39:33.048Z,1.55
2023-04-10T14:42:04.923Z,2.20
2023-04-10T14:44:35.392Z,2.13
2023-04-10T14:47:06.659Z,2.00
2023-04-10T14:49:37.411Z,2.03
2023-04-10T14:52:07.794Z,2.50
2023-04-10T14:54:41.000Z,2.70
2023-04-10T14:57:12.521Z,2.28
2023-04-10T14:59:42.877Z,2.50
2023-04-10T15:02:13.189Z,1.90
2023-04-10T15:04:43.560Z,1.95
2023-04-10T15:07:13.858Z,2.00
2023-04-10T15:09:46.865Z,2.20
2023-04-10T15:12:17.190Z,2.47
2023-04-10T15:14:47.544Z,2.47
2023-04-10T15:17:18.076Z,2.30
2023-04-10T15:19:48.421Z,2.97
2023-04-10T15:22:19.086Z,2.50
2023-04-10T15:24:52.303Z,2.45
2023-04-10T15:27:23.189Z,3.53
2023-04-10T15:29:53.643Z,2.83
2023-04-10T15:32:24.077Z,2.05
2023-04-10T15:34:54.454Z,2.50
2023-04-10T15:37:25.561Z,2.10
2023-04-10T15:39:58.846Z,2.40
2023-04-10T15:42:29.328Z,2.10
2023-04-10T15:44:59.665Z,2.10
2023-04-10T15:47:30.243Z,2.25
2023-04-10T15:50:00.713Z,2.47
2023-04-10T15:52:32.992Z,3.13
2023-04-10T15:55:06.022Z,2.72
2023-04-10T15:57:36.349Z,2.67
2023-04-10T16:00:07.395Z,2.20
2023-04-10T16:02:37.910Z,2.13
2023-04-10T16:05:09.557Z,2.30
2023-04-10T16:07:42.285Z,2.40
2023-04-10T16:10:15.447Z,1.92
2023-04-10T16:12:45.946Z,2.25
2023-04-10T16:15:16.871Z,2.92
2023-04-10T16:17:47.274Z,2.05
2023-04-10T16:20:17.772Z,2.28
2023-04-10T16:22:48.136Z,1.92
2023-04-10T16:25:21.876Z,2.67
2023-04-10T16:27:53.149Z,1.65
2023-04-10T16:30:23.611Z,1.83
2023-04-10T16:32:54.423Z,2.60
2023-04-10T16:35:24.798Z,1.98
2023-04-10T16:37:55.107Z,2.03
2023-04-10T16:40:32.815Z,2.28
2023-04-10T16:43:03.420Z,1.95
2023-04-10T16:45:33.700Z,2.13
2023-04-10T16:48:04.123Z,2.55
2023-04-10T16:50:37.746Z,2.58
2023-04-10T16:53:08.032Z,1.92
2023-04-10T16:55:40.937Z,1.95
2023-04-10T16:58:11.204Z,2.00
2023-04-10T17:00:41.733Z,1.90
2023-04-10T17:03:12.509Z,1.77
2023-04-10T17:05:42.916Z,1.73
2023-04-10T17:08:13.245Z,1.95
2023-04-10T17:10:46.231Z,2.25
2023-04-10T17:13:17.829Z,1.70
2023-04-10T17:15:49.621Z,1.80
2023-04-10T17:18:20.309Z,2.03
2023-04-10T17:20:50.657Z,2.05
2023-04-10T17:23:21.085Z,2.10
2023-04-10T17:25:54.072Z,2.60
2023-04-10T17:28:24.582Z,1.90
2023-04-10T17:30:55.091Z,2.72
2023-04-10T17:33:25.385Z,2.60
2023-04-10T17:35:55.860Z,1.83
2023-04-10T17:38:26.188Z,2.20
2023-04-10T17:40:59.282Z,2.30
2023-04-10T17:43:29.636Z,2.40
2023-04-10T17:45:59.992Z,2.17
2023-04-10T17:48:30.698Z,2.30
2023-04-10T17:51:01.365Z,1.98
2023-04-10T17:53:31.718Z,2.15
2023-04-10T17:56:04.709Z,2.67
2023-04-10T17:58:35.209Z,2.67
2023-04-10T18:01:05.571Z,2.17
2023-04-10T18:03:36.104Z,2.55
2023-04-10T18:06:07.557Z,2.25
2023-04-10T18:08:38.602Z,2.35
2023-04-10T18:11:11.846Z,2.08
2023-04-10T18:13:42.118Z,2.65
2023-04-10T18:16:13.825Z,3.15
2023-04-10T18:18:44.407Z,2.45
2023-04-10T18:21:14.870Z,2.63
2023-04-10T18:23:45.258Z,2.60
2023-04-10T18:26:21.064Z,2.13
2023-04-10T18:28:51.451Z,2.47
2023-04-10T18:31:21.772Z,2.38
2023-04-10T18:34:06.567Z,2.50
2023-04-10T18:36:37.980Z,2.30
2023-04-10T18:39:08.257Z,2.65
2023-04-10T18:41:41.344Z,3.58
2023-04-10T18:44:11.864Z,3.10
2023-04-10T18:46:48.437Z,2.97
2023-04-10T18:49:21.516Z,3.17
2023-04-10T18:51:51.968Z,2.75
2023-04-10T18:54:22.311Z,2.83
2023-04-10T18:56:55.289Z,2.63
2023-04-10T18:59:25.638Z,2.78
2023-04-10T19:01:56.103Z,2.75
2023-04-10T19:04:26.899Z,2.20
2023-04-10T19:06:57.353Z,2.35
2023-04-10T19:09:27.800Z,2.42
2023-04-10T19:12:01.634Z,1.88
2023-04-10T19:14:31.977Z,1.70
2023-04-10T19:17:06.153Z,1.80
2023-04-10T19:19:36.630Z,1.98
2023-04-10T19:22:07.010Z,1.88
2023-04-10T19:24:37.348Z,1.42
2023-04-10T19:27:10.321Z,2.08
2023-04-10T19:29:40.736Z,1.63
2023-04-10T19:32:12.019Z,1.38
2023-04-10T19:34:42.848Z,1.35
2023-04-10T19:37:13.760Z,1.77
2023-04-10T19:39:44.796Z,1.30
2023-04-10T19:42:18.329Z,1.52
2023-04-10T19:44:49.142Z,1.65
2023-04-10T19:47:20.924Z,1.38
2023-04-10T19:49:51.952Z,1.08
2023-04-10T19:52:22.863Z,1.30
2023-04-10T19:54:53.721Z,0.80
2023-04-10T19:57:27.336Z,1.60
2023-04-10T19:59:59.108Z,0.80
2023-04-10T20:02:30.079Z,1.17
2023-04-10T20:05:01.510Z,0.95
2023-04-10T20:07:32.553Z,1.13
2023-04-10T20:10:03.782Z,1.92
2023-04-10T20:12:37.152Z,1.08
2023-04-10T20:15:09.534Z,1.15
2023-04-10T20:17:41.160Z,1.00
2023-04-10T20:20:13.679Z,0.85
2023-04-10T20:22:44.484Z,1.08
2023-04-10T20:25:15.280Z,1.13
2023-04-10T20:27:48.675Z,1.48
2023-04-10T20:30:19.505Z,1.35
2023-04-10T20:32:50.392Z,1.20
2023-04-10T20:35:21.406Z,0.93
2023-04-10T20:37:52.519Z,0.90
2023-04-10T20:40:23.530Z,1.00
2023-04-10T20:42:57.160Z,0.82
2023-04-10T20:45:28.032Z,1.08
2023-04-10T20:48:00.547Z,1.55
2023-04-10T20:50:31.469Z,1.20
2023-04-10T20:53:02.505Z,1.38
2023-04-10T20:55:33.352Z,1.00
2023-04-10T20:58:06.749Z,1.35
2023-04-10T21:00:39.869Z,1.20
2023-04-10T21:03:10.914Z,1.25
2023-04-10T21:05:43.542Z,1.30
2023-04-10T21:08:15.853Z,1.38
2023-04-10T21:10:49.456Z,1.20
2023-04-10T21:13:23.027Z,1.10
2023-04-10T21:15:53.996Z,1.38
2023-04-10T21:18:24.855Z,1.17
2023-04-10T21:20:55.741Z,1.85
2023-04-10T21:23:26.583Z,0.90
2023-04-10T21:25:57.876Z,1.30
2023-04-10T21:28:31.523Z,1.60
2023-04-10T21:31:02.306Z,1.17
2023-04-10T21:33:33.969Z,1.67
2023-04-10T21:36:09.384Z,1.70
2023-04-10T21:38:40.166Z,1.90
2023-04-10T21:41:11.661Z,1.60
2023-04-10T21:43:47.917Z,1.75
2023-04-10T21:46:18.850Z,1.63
2023-04-10T21:48:52.593Z,1.80
2023-04-10T21:51:25.661Z,1.95
2023-04-10T21:53:57.587Z,1.88
2023-04-10T21:56:28.445Z,2.70
2023-04-10T21:59:01.956Z,2.38
2023-04-10T22:01:33.092Z,2.28
2023-04-10T22:04:04.180Z,1.83
2023-04-10T22:06:35.320Z,2.03
2023-04-10T22:09:06.298Z,1.73
2023-04-10T22:11:39.382Z,1.90
2023-04-10T22:14:17.441Z,1.98
2023-04-10T22:16:49.057Z,2.13
2023-04-10T22:19:20.295Z,2.42
2023-04-10T22:21:51.078Z,1.67
2023-04-10T22:24:21.931Z,2.30
2023-04-10T22:26:52.837Z,3.05
2023-04-10T22:29:26.253Z,2.08
2023-04-10T22:31:57.224Z,2.25
2023-04-10T22:34:28.060Z,1.77
2023-04-10T22:36:59.028Z,2.33
2023-04-10T22:39:30.048Z,2.00
2023-04-10T22:42:00.978Z,1.73
2023-04-10T22:44:34.532Z,1.77
2023-04-10T22:47:05.270Z,2.25
2023-04-10T22:49:36.172Z,1.77
2023-04-10T22:52:06.982Z,1.75
2023-04-10T22:54:37.945Z,1.52
2023-04-10T22:57:09.033Z,1.40
2023-04-10T22:59:42.668Z,2.05
2023-04-10T23:02:13.659Z,1.90
2023-04-10T23:04:44.927Z,2.00
2023-04-10T23:07:15.838Z,2.33
2023-04-10T23:09:46.634Z,1.70
2023-04-10T23:12:17.538Z,1.52
2023-04-10T23:14:51.004Z,1.63
2023-04-10T23:17:23.186Z,2.22
2023-04-10T23:19:54.083Z,2.72
2023-04-10T23:22:24.934Z,1.70
2023-04-10T23:24:57.254Z,1.48
2023-04-10T23:27:28.228Z,1.60
2023-04-10T23:30:02.388Z,1.73
2023-04-10T23:32:34.040Z,1.60
2023-04-10T23:35:04.907Z,1.90
2023-04-10T23:37:36.301Z,1.80
2023-04-10T23:40:07.610Z,2.50
2023-04-10T23:42:38.539Z,1.92
2023-04-10T23:45:13.942Z,1.92
2023-04-10T23:47:44.772Z,2.00
2023-04-10T23:50:15.584Z,1.73
2023-04-10T23:52:50.656Z,1.90
2023-04-10T23:55:21.974Z,1.45
2023-04-10T23:57:52.880Z,1.95
